sensor_id;sensor_type;location;lat;lon;timestamp;P1;durP1;ratioP1;P2;durP2;ratioP2
4309;SDS011;2168;53.576;9.980;2024-02-14T00:00:32;0.10;;;0.10;;
4309;SDS011;2168;53.576;9.980;2024-02-14T00:02:57;0.10;;;0.10;;
4309;SDS011;2168;53.576;9.980;2024-02-14T00:05:22;0.20;;;0.20;;
4309;SDS011;2168;53.576;9.980;2024-02-14T00:07:48;0.10;;;0.10;;
4309;SDS011;2168;53.576;9.980;2024-02-14T00:10:13;0.10;;;0.10;;
4309;SDS011;2168;53.576;9.980;2024-02-14T00:12:38;0.17;;;0.17;;
4309;SDS011;2168;53.576;9.980;2024-02-14T00:15:04;0.20;;;0.20;;
4309;SDS011;2168;53.576;9.980;2024-02-14T00:17:31;0.10;;;0.10;;
4309;SDS011;2168;53.576;9.980;2024-02-14T00:19:56;0.10;;;0.10;;
4309;SDS011;2168;53.576;9.980;2024-02-14T00:22:21;0.20;;;0.20;;
4309;SDS011;2168;53.576;9.980;2024-02-14T00:24:46;0.10;;;0.10;;
4309;SDS011;2168;53.576;9.980;2024-02-14T00:27:11;0.20;;;0.20;;
4309;SDS011;2168;53.576;9.980;2024-02-14T00:29:39;0.20;;;0.20;;
4309;SDS011;2168;53.576;9.980;2024-02-14T00:32:04;0.20;;;0.20;;
4309;SDS011;2168;53.576;9.980;2024-02-14T00:34:29;0.20;;;0.20;;
4309;SDS011;2168;53.576;9.980;2024-02-14T00:36:55;0.20;;;0.20;;
4309;SDS011;2168;53.576;9.980;2024-02-14T00:39:20;0.20;;;0.20;;
4309;SDS011;2168;53.576;9.980;2024-02-14T00:41:48;0.20;;;0.20;;
4309;SDS011;2168;53.576;9.980;2024-02-14T00:44:14;0.10;;;0.10;;
4309;SDS011;2168;53.576;9.980;2024-02-14T00:46:43;0.10;;;0.10;;
4309;SDS011;2168;53.576;9.980;2024-02-14T00:49:09;0.10;;;0.10;;
4309;SDS011;2168;53.576;9.980;2024-02-14T00:51:35;0.20;;;0.20;;
4309;SDS011;2168;53.576;9.980;2024-02-14T00:54:02;0.10;;;0.10;;
4309;SDS011;2168;53.576;9.980;2024-02-14T00:56:27;0.10;;;0.10;;
4309;SDS011;2168;53.576;9.980;2024-02-14T00:58:52;0.20;;;0.20;;
4309;SDS011;2168;53.576;9.980;2024-02-14T01:01:18;0.20;;;0.20;;
4309;SDS011;2168;53.576;9.980;2024-02-14T01:03:43;0.20;;;0.20;;
4309;SDS011;2168;53.576;9.980;2024-02-14T01:06:08;0.20;;;0.20;;
4309;SDS011;2168;53.576;9.980;2024-02-14T01:08:33;0.20;;;0.20;;
4309;SDS011;2168;53.576;9.980;2024-02-14T01:10:59;0.17;;;0.17;;
4309;SDS011;2168;53.576;9.980;2024-02-14T01:13:24;0.10;;;0.10;;
4309;SDS011;2168;53.576;9.980;2024-02-14T01:15:49;0.10;;;0.10;;
4309;SDS011;2168;53.576;9.980;2024-02-14T01:18:15;0.20;;;0.20;;
4309;SDS011;2168;53.576;9.980;2024-02-14T01:20:40;0.00;;;0.00;;
4309;SDS011;2168;53.576;9.980;2024-02-14T01:23:05;0.10;;;0.10;;
4309;SDS011;2168;53.576;9.980;2024-02-14T01:25:31;0.10;;;0.10;;
4309;SDS011;2168;53.576;9.980;2024-02-14T01:27:58;0.10;;;0.10;;
4309;SDS011;2168;53.576;9.980;2024-02-14T01:30:24;0.10;;;0.10;;
4309;SDS011;2168;53.576;9.980;2024-02-14T01:32:50;0.10;;;0.10;;
4309;SDS011;2168;53.576;9.980;2024-02-14T01:35:15;0.10;;;0.10;;
4309;SDS011;2168;53.576;9.980;2024-02-14T01:37:40;0.10;;;0.10;;
4309;SDS011;2168;53.576;9.980;2024-02-14T01:40:06;0.10;;;0.10;;
4309;SDS011;2168;53.576;9.980;2024-02-14T01:42:32;0.10;;;0.10;;
4309;SDS011;2168;53.576;9.980;2024-02-14T01:44:57;0.10;;;0.10;;
4309;SDS011;2168;53.576;9.980;2024-02-14T01:47:23;0.10;;;0.10;;
4309;SDS011;2168;53.576;9.980;2024-02-14T01:49:48;0.10;;;0.10;;
4309;SDS011;2168;53.576;9.980;2024-02-14T01:52:13;0.13;;;0.13;;
4309;SDS011;2168;53.576;9.980;2024-02-14T01:54:39;0.10;;;0.10;;
4309;SDS011;2168;53.576;9.980;2024-02-14T01:57:05;0.10;;;0.10;;
4309;SDS011;2168;53.576;9.980;2024-02-14T01:59:30;0.10;;;0.10;;
4309;SDS011;2168;53.576;9.980;2024-02-14T02:01:55;0.20;;;0.20;;
4309;SDS011;2168;53.576;9.980;2024-02-14T02:04:20;0.10;;;0.10;;
4309;SDS011;2168;53.576;9.980;2024-02-14T02:06:46;0.10;;;0.10;;
4309;SDS011;2168;53.576;9.980;2024-02-14T02:09:11;0.10;;;0.10;;
4309;SDS011;2168;53.576;9.980;2024-02-14T02:11:45;0.10;;;0.10;;
4309;SDS011;2168;53.576;9.980;2024-02-14T02:14:10;0.10;;;0.10;;
4309;SDS011;2168;53.576;9.980;2024-02-14T02:16:37;0.10;;;0.10;;
4309;SDS011;2168;53.576;9.980;2024-02-14T02:19:03;0.10;;;0.10;;
4309;SDS011;2168;53.576;9.980;2024-02-14T02:21:28;0.20;;;0.20;;
4309;SDS011;2168;53.576;9.980;2024-02-14T02:23:54;0.10;;;0.10;;
4309;SDS011;2168;53.576;9.980;2024-02-14T02:26:19;0.20;;;0.20;;
4309;SDS011;2168;53.576;9.980;2024-02-14T02:28:44;0.10;;;0.10;;
4309;SDS011;2168;53.576;9.980;2024-02-14T02:31:11;0.20;;;0.20;;
4309;SDS011;2168;53.576;9.980;2024-02-14T02:33:36;0.20;;;0.20;;
4309;SDS011;2168;53.576;9.980;2024-02-14T02:36:01;0.10;;;0.10;;
4309;SDS011;2168;53.576;9.980;2024-02-14T02:38:26;0.13;;;0.13;;
4309;SDS011;2168;53.576;9.980;2024-02-14T02:40:52;0.20;;;0.20;;
4309;SDS011;2168;53.576;9.980;2024-02-14T02:43:17;0.13;;;0.13;;
4309;SDS011;2168;53.576;9.980;2024-02-14T02:45:42;0.20;;;0.20;;
4309;SDS011;2168;53.576;9.980;2024-02-14T02:48:09;0.20;;;0.20;;
4309;SDS011;2168;53.576;9.980;2024-02-14T02:50:34;0.20;;;0.20;;
4309;SDS011;2168;53.576;9.980;2024-02-14T02:52:59;0.20;;;0.20;;
4309;SDS011;2168;53.576;9.980;2024-02-14T02:55:24;0.10;;;0.10;;
4309;SDS011;2168;53.576;9.980;2024-02-14T02:57:51;0.20;;;0.20;;
4309;SDS011;2168;53.576;9.980;2024-02-14T03:00:17;0.20;;;0.20;;
4309;SDS011;2168;53.576;9.980;2024-02-14T03:02:46;0.20;;;0.20;;
4309;SDS011;2168;53.576;9.980;2024-02-14T03:05:11;0.20;;;0.20;;
4309;SDS011;2168;53.576;9.980;2024-02-14T03:07:43;0.30;;;0.30;;
4309;SDS011;2168;53.576;9.980;2024-02-14T03:10:10;0.20;;;0.20;;
4309;SDS011;2168;53.576;9.980;2024-02-14T03:12:35;0.13;;;0.13;;
4309;SDS011;2168;53.576;9.980;2024-02-14T03:15:02;0.20;;;0.20;;
4309;SDS011;2168;53.576;9.980;2024-02-14T03:17:29;0.10;;;0.10;;
4309;SDS011;2168;53.576;9.980;2024-02-14T03:19:54;0.20;;;0.20;;
4309;SDS011;2168;53.576;9.980;2024-02-14T03:22:21;0.20;;;0.20;;
4309;SDS011;2168;53.576;9.980;2024-02-14T03:24:47;0.20;;;0.20;;
4309;SDS011;2168;53.576;9.980;2024-02-14T03:27:12;0.20;;;0.20;;
4309;SDS011;2168;53.576;9.980;2024-02-14T03:29:38;0.20;;;0.20;;
4309;SDS011;2168;53.576;9.980;2024-02-14T03:32:04;0.30;;;0.30;;
4309;SDS011;2168;53.576;9.980;2024-02-14T03:34:29;0.20;;;0.20;;
4309;SDS011;2168;53.576;9.980;2024-02-14T03:36:56;0.20;;;0.20;;
4309;SDS011;2168;53.576;9.980;2024-02-14T03:39:21;0.20;;;0.20;;
4309;SDS011;2168;53.576;9.980;2024-02-14T03:41:47;0.40;;;0.40;;
4309;SDS011;2168;53.576;9.980;2024-02-14T03:44:13;0.30;;;0.30;;
4309;SDS011;2168;53.576;9.980;2024-02-14T03:46:38;0.20;;;0.20;;
4309;SDS011;2168;53.576;9.980;2024-02-14T03:49:03;0.23;;;0.23;;
4309;SDS011;2168;53.576;9.980;2024-02-14T03:51:28;0.30;;;0.30;;
4309;SDS011;2168;53.576;9.980;2024-02-14T03:53:54;0.20;;;0.20;;
4309;SDS011;2168;53.576;9.980;2024-02-14T03:56:19;0.17;;;0.17;;
4309;SDS011;2168;53.576;9.980;2024-02-14T03:58:44;0.30;;;0.30;;
4309;SDS011;2168;53.576;9.980;2024-02-14T04:01:11;0.30;;;0.30;;
4309;SDS011;2168;53.576;9.980;2024-02-14T04:03:36;0.37;;;0.37;;
4309;SDS011;2168;53.576;9.980;2024-02-14T04:06:02;0.30;;;0.30;;
4309;SDS011;2168;53.576;9.980;2024-02-14T04:08:27;0.30;;;0.30;;
4309;SDS011;2168;53.576;9.980;2024-02-14T04:10:54;0.40;;;0.40;;
4309;SDS011;2168;53.576;9.980;2024-02-14T04:13:20;0.33;;;0.33;;
4309;SDS011;2168;53.576;9.980;2024-02-14T04:15:45;0.30;;;0.30;;
4309;SDS011;2168;53.576;9.980;2024-02-14T04:18:11;0.40;;;0.40;;
4309;SDS011;2168;53.576;9.980;2024-02-14T04:20:36;0.30;;;0.30;;
4309;SDS011;2168;53.576;9.980;2024-02-14T04:23:01;0.30;;;0.30;;
4309;SDS011;2168;53.576;9.980;2024-02-14T04:25:28;0.30;;;0.30;;
4309;SDS011;2168;53.576;9.980;2024-02-14T04:27:54;0.40;;;0.40;;
4309;SDS011;2168;53.576;9.980;2024-02-14T04:30:19;0.30;;;0.30;;
4309;SDS011;2168;53.576;9.980;2024-02-14T04:32:44;0.40;;;0.40;;
4309;SDS011;2168;53.576;9.980;2024-02-14T04:35:09;0.40;;;0.40;;
4309;SDS011;2168;53.576;9.980;2024-02-14T04:37:35;0.37;;;0.37;;
4309;SDS011;2168;53.576;9.980;2024-02-14T04:40:01;0.30;;;0.30;;
4309;SDS011;2168;53.576;9.980;2024-02-14T04:42:29;0.37;;;0.37;;
4309;SDS011;2168;53.576;9.980;2024-02-14T04:44:54;0.30;;;0.30;;
4309;SDS011;2168;53.576;9.980;2024-02-14T04:47:19;0.40;;;0.40;;
4309;SDS011;2168;53.576;9.980;2024-02-14T04:49:45;0.23;;;0.23;;
4309;SDS011;2168;53.576;9.980;2024-02-14T04:52:10;0.30;;;0.30;;
4309;SDS011;2168;53.576;9.980;2024-02-14T04:54:36;0.23;;;0.23;;
4309;SDS011;2168;53.576;9.980;2024-02-14T04:57:01;0.40;;;0.40;;
4309;SDS011;2168;53.576;9.980;2024-02-14T04:59:26;0.20;;;0.20;;
4309;SDS011;2168;53.576;9.980;2024-02-14T05:01:51;0.30;;;0.30;;
4309;SDS011;2168;53.576;9.980;2024-02-14T05:04:18;0.30;;;0.30;;
4309;SDS011;2168;53.576;9.980;2024-02-14T05:06:43;0.40;;;0.40;;
4309;SDS011;2168;53.576;9.980;2024-02-14T05:09:08;0.40;;;0.40;;
4309;SDS011;2168;53.576;9.980;2024-02-14T05:11:36;0.30;;;0.30;;
4309;SDS011;2168;53.576;9.980;2024-02-14T05:14:02;0.43;;;0.43;;
4309;SDS011;2168;53.576;9.980;2024-02-14T05:16:28;0.50;;;0.50;;
4309;SDS011;2168;53.576;9.980;2024-02-14T05:18:54;0.40;;;0.40;;
4309;SDS011;2168;53.576;9.980;2024-02-14T05:21:22;0.40;;;0.40;;
4309;SDS011;2168;53.576;9.980;2024-02-14T05:23:47;0.30;;;0.30;;
4309;SDS011;2168;53.576;9.980;2024-02-14T05:26:13;0.30;;;0.30;;
4309;SDS011;2168;53.576;9.980;2024-02-14T05:28:38;0.30;;;0.30;;
4309;SDS011;2168;53.576;9.980;2024-02-14T05:31:05;0.30;;;0.30;;
4309;SDS011;2168;53.576;9.980;2024-02-14T05:33:30;0.40;;;0.40;;
4309;SDS011;2168;53.576;9.980;2024-02-14T05:35:55;0.50;;;0.50;;
4309;SDS011;2168;53.576;9.980;2024-02-14T05:38:21;0.40;;;0.40;;
4309;SDS011;2168;53.576;9.980;2024-02-14T05:40:46;0.30;;;0.30;;
4309;SDS011;2168;53.576;9.980;2024-02-14T05:43:11;0.40;;;0.40;;
4309;SDS011;2168;53.576;9.980;2024-02-14T05:45:37;0.30;;;0.30;;
4309;SDS011;2168;53.576;9.980;2024-02-14T05:48:02;0.40;;;0.40;;
4309;SDS011;2168;53.576;9.980;2024-02-14T05:50:28;0.33;;;0.33;;
4309;SDS011;2168;53.576;9.980;2024-02-14T05:52:53;0.50;;;0.50;;
4309;SDS011;2168;53.576;9.980;2024-02-14T05:55:19;0.40;;;0.40;;
4309;SDS011;2168;53.576;9.980;2024-02-14T05:57:44;0.50;;;0.50;;
4309;SDS011;2168;53.576;9.980;2024-02-14T06:00:09;0.30;;;0.30;;
4309;SDS011;2168;53.576;9.980;2024-02-14T06:02:35;0.30;;;0.30;;
4309;SDS011;2168;53.576;9.980;2024-02-14T06:05:00;0.37;;;0.37;;
4309;SDS011;2168;53.576;9.980;2024-02-14T06:07:26;0.30;;;0.30;;
4309;SDS011;2168;53.576;9.980;2024-02-14T06:09:51;0.30;;;0.30;;
4309;SDS011;2168;53.576;9.980;2024-02-14T06:12:16;0.37;;;0.37;;
4309;SDS011;2168;53.576;9.980;2024-02-14T06:14:41;0.50;;;0.50;;
4309;SDS011;2168;53.576;9.980;2024-02-14T06:17:06;0.50;;;0.50;;
4309;SDS011;2168;53.576;9.980;2024-02-14T06:19:32;0.40;;;0.40;;
4309;SDS011;2168;53.576;9.980;2024-02-14T06:21:58;0.50;;;0.50;;
4309;SDS011;2168;53.576;9.980;2024-02-14T06:24:24;0.30;;;0.30;;
4309;SDS011;2168;53.576;9.980;2024-02-14T06:26:49;0.30;;;0.30;;
4309;SDS011;2168;53.576;9.980;2024-02-14T06:29:14;0.50;;;0.50;;
4309;SDS011;2168;53.576;9.980;2024-02-14T06:31:40;0.37;;;0.37;;
4309;SDS011;2168;53.576;9.980;2024-02-14T06:34:05;0.30;;;0.30;;
4309;SDS011;2168;53.576;9.980;2024-02-14T06:36:32;0.53;;;0.53;;
4309;SDS011;2168;53.576;9.980;2024-02-14T06:38:57;0.30;;;0.30;;
4309;SDS011;2168;53.576;9.980;2024-02-14T06:41:22;0.30;;;0.30;;
4309;SDS011;2168;53.576;9.980;2024-02-14T06:43:48;0.40;;;0.40;;
4309;SDS011;2168;53.576;9.980;2024-02-14T06:46:13;0.40;;;0.40;;
4309;SDS011;2168;53.576;9.980;2024-02-14T06:48:38;0.30;;;0.30;;
4309;SDS011;2168;53.576;9.980;2024-02-14T06:51:04;0.30;;;0.30;;
4309;SDS011;2168;53.576;9.980;2024-02-14T06:53:31;0.43;;;0.43;;
4309;SDS011;2168;53.576;9.980;2024-02-14T06:55:56;0.50;;;0.50;;
4309;SDS011;2168;53.576;9.980;2024-02-14T06:58:21;0.40;;;0.40;;
4309;SDS011;2168;53.576;9.980;2024-02-14T07:00:46;0.30;;;0.30;;
4309;SDS011;2168;53.576;9.980;2024-02-14T07:03:12;0.40;;;0.40;;
4309;SDS011;2168;53.576;9.980;2024-02-14T07:05:37;0.40;;;0.40;;
4309;SDS011;2168;53.576;9.980;2024-02-14T07:08:02;0.40;;;0.40;;
4309;SDS011;2168;53.576;9.980;2024-02-14T07:10:28;0.40;;;0.40;;
4309;SDS011;2168;53.576;9.980;2024-02-14T07:12:53;0.30;;;0.30;;
4309;SDS011;2168;53.576;9.980;2024-02-14T07:15:18;0.30;;;0.30;;
4309;SDS011;2168;53.576;9.980;2024-02-14T07:17:45;0.50;;;0.50;;
4309;SDS011;2168;53.576;9.980;2024-02-14T07:20:10;0.40;;;0.40;;
4309;SDS011;2168;53.576;9.980;2024-02-14T07:22:36;0.47;;;0.47;;
4309;SDS011;2168;53.576;9.980;2024-02-14T07:25:01;0.30;;;0.30;;
4309;SDS011;2168;53.576;9.980;2024-02-14T07:27:27;0.40;;;0.40;;
4309;SDS011;2168;53.576;9.980;2024-02-14T07:29:52;0.30;;;0.30;;
4309;SDS011;2168;53.576;9.980;2024-02-14T07:32:17;0.50;;;0.50;;
4309;SDS011;2168;53.576;9.980;2024-02-14T07:34:42;0.30;;;0.30;;
4309;SDS011;2168;53.576;9.980;2024-02-14T07:37:08;0.50;;;0.50;;
4309;SDS011;2168;53.576;9.980;2024-02-14T07:39:34;0.40;;;0.40;;
4309;SDS011;2168;53.576;9.980;2024-02-14T07:42:02;0.40;;;0.40;;
4309;SDS011;2168;53.576;9.980;2024-02-14T07:44:27;0.50;;;0.50;;
4309;SDS011;2168;53.576;9.980;2024-02-14T07:46:53;0.40;;;0.40;;
4309;SDS011;2168;53.576;9.980;2024-02-14T07:49:19;0.60;;;0.60;;
4309;SDS011;2168;53.576;9.980;2024-02-14T07:51:44;0.50;;;0.50;;
4309;SDS011;2168;53.576;9.980;2024-02-14T07:54:09;0.43;;;0.43;;
4309;SDS011;2168;53.576;9.980;2024-02-14T07:56:35;0.50;;;0.50;;
4309;SDS011;2168;53.576;9.980;2024-02-14T07:59:00;0.40;;;0.40;;
4309;SDS011;2168;53.576;9.980;2024-02-14T08:01:25;0.60;;;0.60;;
4309;SDS011;2168;53.576;9.980;2024-02-14T08:03:50;0.40;;;0.40;;
4309;SDS011;2168;53.576;9.980;2024-02-14T08:06:16;0.60;;;0.60;;
4309;SDS011;2168;53.576;9.980;2024-02-14T08:08:41;0.50;;;0.50;;
4309;SDS011;2168;53.576;9.980;2024-02-14T08:11:08;1.27;;;1.27;;
4309;SDS011;2168;53.576;9.980;2024-02-14T08:13:34;0.50;;;0.50;;
4309;SDS011;2168;53.576;9.980;2024-02-14T08:15:59;0.40;;;0.40;;
4309;SDS011;2168;53.576;9.980;2024-02-14T08:18:24;0.60;;;0.60;;
4309;SDS011;2168;53.576;9.980;2024-02-14T08:20:52;0.40;;;0.40;;
4309;SDS011;2168;53.576;9.980;2024-02-14T08:23:17;0.50;;;0.50;;
4309;SDS011;2168;53.576;9.980;2024-02-14T08:25:42;0.47;;;0.47;;
4309;SDS011;2168;53.576;9.980;2024-02-14T08:28:09;0.80;;;0.80;;
4309;SDS011;2168;53.576;9.980;2024-02-14T08:30:34;0.50;;;0.50;;
4309;SDS011;2168;53.576;9.980;2024-02-14T08:32:59;0.40;;;0.40;;
4309;SDS011;2168;53.576;9.980;2024-02-14T08:35:25;0.50;;;0.50;;
4309;SDS011;2168;53.576;9.980;2024-02-14T08:37:50;0.40;;;0.40;;
4309;SDS011;2168;53.576;9.980;2024-02-14T08:40:15;0.50;;;0.50;;
4309;SDS011;2168;53.576;9.980;2024-02-14T08:42:40;0.53;;;0.53;;
4309;SDS011;2168;53.576;9.980;2024-02-14T08:45:06;0.60;;;0.60;;
4309;SDS011;2168;53.576;9.980;2024-02-14T08:47:31;0.77;;;0.77;;
4309;SDS011;2168;53.576;9.980;2024-02-14T08:49:56;0.60;;;0.60;;
4309;SDS011;2168;53.576;9.980;2024-02-14T08:52:22;0.70;;;0.70;;
4309;SDS011;2168;53.576;9.980;2024-02-14T08:54:47;0.70;;;0.70;;
4309;SDS011;2168;53.576;9.980;2024-02-14T08:57:12;0.50;;;0.50;;
4309;SDS011;2168;53.576;9.980;2024-02-14T08:59:38;0.60;;;0.60;;
4309;SDS011;2168;53.576;9.980;2024-02-14T09:02:03;0.53;;;0.53;;
4309;SDS011;2168;53.576;9.980;2024-02-14T09:04:28;0.60;;;0.60;;
4309;SDS011;2168;53.576;9.980;2024-02-14T09:06:53;0.50;;;0.50;;
4309;SDS011;2168;53.576;9.980;2024-02-14T09:09:19;0.47;;;0.47;;
4309;SDS011;2168;53.576;9.980;2024-02-14T09:11:44;0.60;;;0.60;;
4309;SDS011;2168;53.576;9.980;2024-02-14T09:14:11;0.63;;;0.63;;
4309;SDS011;2168;53.576;9.980;2024-02-14T09:16:36;0.70;;;0.70;;
4309;SDS011;2168;53.576;9.980;2024-02-14T09:19:02;0.80;;;0.80;;
4309;SDS011;2168;53.576;9.980;2024-02-14T09:21:28;0.70;;;0.70;;
4309;SDS011;2168;53.576;9.980;2024-02-14T09:23:54;0.63;;;0.63;;
4309;SDS011;2168;53.576;9.980;2024-02-14T09:26:19;0.60;;;0.60;;
4309;SDS011;2168;53.576;9.980;2024-02-14T09:28:45;1.47;;;1.47;;
4309;SDS011;2168;53.576;9.980;2024-02-14T09:31:10;0.70;;;0.70;;
4309;SDS011;2168;53.576;9.980;2024-02-14T09:33:37;0.50;;;0.50;;
4309;SDS011;2168;53.576;9.980;2024-02-14T09:36:03;1.33;;;1.33;;
4309;SDS011;2168;53.576;9.980;2024-02-14T09:38:29;0.40;;;0.40;;
4309;SDS011;2168;53.576;9.980;2024-02-14T09:40:54;1.60;;;1.60;;
4309;SDS011;2168;53.576;9.980;2024-02-14T09:43:25;0.70;;;0.70;;
4309;SDS011;2168;53.576;9.980;2024-02-14T09:45:53;1.10;;;1.10;;
4309;SDS011;2168;53.576;9.980;2024-02-14T09:48:19;0.80;;;0.80;;
4309;SDS011;2168;53.576;9.980;2024-02-14T09:50:44;1.20;;;1.20;;
4309;SDS011;2168;53.576;9.980;2024-02-14T09:53:10;0.77;;;0.77;;
4309;SDS011;2168;53.576;9.980;2024-02-14T09:55:35;0.60;;;0.60;;
4309;SDS011;2168;53.576;9.980;2024-02-14T09:58:01;0.50;;;0.50;;
4309;SDS011;2168;53.576;9.980;2024-02-14T10:00:29;1.00;;;1.00;;
4309;SDS011;2168;53.576;9.980;2024-02-14T10:02:56;0.70;;;0.70;;
4309;SDS011;2168;53.576;9.980;2024-02-14T10:05:21;1.30;;;1.30;;
4309;SDS011;2168;53.576;9.980;2024-02-14T10:07:46;1.10;;;1.10;;
4309;SDS011;2168;53.576;9.980;2024-02-14T10:10:12;0.80;;;0.80;;
4309;SDS011;2168;53.576;9.980;2024-02-14T10:12:38;0.70;;;0.70;;
4309;SDS011;2168;53.576;9.980;2024-02-14T10:15:05;0.67;;;0.67;;
4309;SDS011;2168;53.576;9.980;2024-02-14T10:17:32;0.80;;;0.80;;
4309;SDS011;2168;53.576;9.980;2024-02-14T10:19:58;0.60;;;0.60;;
4309;SDS011;2168;53.576;9.980;2024-02-14T10:22:24;1.80;;;1.80;;
4309;SDS011;2168;53.576;9.980;2024-02-14T10:24:50;1.00;;;1.00;;
4309;SDS011;2168;53.576;9.980;2024-02-14T10:27:15;0.90;;;0.90;;
4309;SDS011;2168;53.576;9.980;2024-02-14T10:29:40;0.90;;;0.90;;
4309;SDS011;2168;53.576;9.980;2024-02-14T10:32:05;1.00;;;1.00;;
4309;SDS011;2168;53.576;9.980;2024-02-14T10:34:31;0.80;;;0.80;;
4309;SDS011;2168;53.576;9.980;2024-02-14T10:36:58;1.20;;;1.20;;
4309;SDS011;2168;53.576;9.980;2024-02-14T10:39:25;0.80;;;0.80;;
4309;SDS011;2168;53.576;9.980;2024-02-14T10:41:50;0.80;;;0.80;;
4309;SDS011;2168;53.576;9.980;2024-02-14T10:44:15;0.90;;;0.90;;
4309;SDS011;2168;53.576;9.980;2024-02-14T10:46:41;1.20;;;1.20;;
4309;SDS011;2168;53.576;9.980;2024-02-14T10:49:06;0.80;;;0.80;;
4309;SDS011;2168;53.576;9.980;2024-02-14T10:51:36;1.20;;;1.20;;
4309;SDS011;2168;53.576;9.980;2024-02-14T10:54:10;1.10;;;1.10;;
4309;SDS011;2168;53.576;9.980;2024-02-14T10:56:36;0.60;;;0.60;;
4309;SDS011;2168;53.576;9.980;2024-02-14T10:59:03;0.97;;;0.97;;
4309;SDS011;2168;53.576;9.980;2024-02-14T11:01:29;0.80;;;0.80;;
4309;SDS011;2168;53.576;9.980;2024-02-14T11:03:58;1.00;;;1.00;;
4309;SDS011;2168;53.576;9.980;2024-02-14T11:06:24;3.83;;;3.83;;
4309;SDS011;2168;53.576;9.980;2024-02-14T11:09:30;1.70;;;1.70;;
4309;SDS011;2168;53.576;9.980;2024-02-14T11:11:42;0.90;;;0.90;;
4309;SDS011;2168;53.576;9.980;2024-02-14T11:14:08;1.40;;;1.40;;
4309;SDS011;2168;53.576;9.980;2024-02-14T11:16:34;1.70;;;1.70;;
4309;SDS011;2168;53.576;9.980;2024-02-14T11:19:11;1.10;;;1.10;;
4309;SDS011;2168;53.576;9.980;2024-02-14T11:21:36;0.97;;;0.97;;
4309;SDS011;2168;53.576;9.980;2024-02-14T11:24:06;1.33;;;1.33;;
4309;SDS011;2168;53.576;9.980;2024-02-14T11:26:38;1.10;;;1.10;;
4309;SDS011;2168;53.576;9.980;2024-02-14T11:29:03;1.10;;;1.10;;
4309;SDS011;2168;53.576;9.980;2024-02-14T11:31:32;1.17;;;1.17;;
4309;SDS011;2168;53.576;9.980;2024-02-14T11:34:02;1.20;;;1.20;;
4309;SDS011;2168;53.576;9.980;2024-02-14T11:36:28;1.00;;;1.00;;
4309;SDS011;2168;53.576;9.980;2024-02-14T11:38:54;1.90;;;1.90;;
4309;SDS011;2168;53.576;9.980;2024-02-14T11:41:20;1.10;;;1.10;;
4309;SDS011;2168;53.576;9.980;2024-02-14T11:43:52;1.10;;;1.10;;
4309;SDS011;2168;53.576;9.980;2024-02-14T11:46:17;0.80;;;0.80;;
4309;SDS011;2168;53.576;9.980;2024-02-14T11:48:43;1.13;;;1.13;;
4309;SDS011;2168;53.576;9.980;2024-02-14T11:51:10;1.00;;;1.00;;
4309;SDS011;2168;53.576;9.980;2024-02-14T11:53:36;1.10;;;1.10;;
4309;SDS011;2168;53.576;9.980;2024-02-14T11:56:01;1.23;;;1.23;;
4309;SDS011;2168;53.576;9.980;2024-02-14T11:58:27;1.33;;;1.33;;
4309;SDS011;2168;53.576;9.980;2024-02-14T12:00:52;1.50;;;1.50;;
4309;SDS011;2168;53.576;9.980;2024-02-14T12:03:20;1.60;;;1.60;;
4309;SDS011;2168;53.576;9.980;2024-02-14T12:05:54;1.40;;;1.40;;
4309;SDS011;2168;53.576;9.980;2024-02-14T12:08:21;1.37;;;1.37;;
4309;SDS011;2168;53.576;9.980;2024-02-14T12:10:47;1.07;;;1.07;;
4309;SDS011;2168;53.576;9.980;2024-02-14T12:13:14;1.50;;;1.50;;
4309;SDS011;2168;53.576;9.980;2024-02-14T12:15:43;1.03;;;1.03;;
4309;SDS011;2168;53.576;9.980;2024-02-14T12:18:09;1.13;;;1.13;;
4309;SDS011;2168;53.576;9.980;2024-02-14T12:20:38;1.00;;;1.00;;
4309;SDS011;2168;53.576;9.980;2024-02-14T12:23:04;1.10;;;1.10;;
4309;SDS011;2168;53.576;9.980;2024-02-14T12:25:30;1.10;;;1.10;;
4309;SDS011;2168;53.576;9.980;2024-02-14T12:27:58;0.83;;;0.83;;
4309;SDS011;2168;53.576;9.980;2024-02-14T12:30:45;1.07;;;1.07;;
4309;SDS011;2168;53.576;9.980;2024-02-14T12:33:11;1.00;;;1.00;;
4309;SDS011;2168;53.576;9.980;2024-02-14T12:35:36;1.00;;;1.00;;
4309;SDS011;2168;53.576;9.980;2024-02-14T12:38:06;1.00;;;1.00;;
4309;SDS011;2168;53.576;9.980;2024-02-14T12:40:34;1.10;;;1.10;;
4309;SDS011;2168;53.576;9.980;2024-02-14T12:43:00;0.90;;;0.90;;
4309;SDS011;2168;53.576;9.980;2024-02-14T12:45:26;1.00;;;1.00;;
4309;SDS011;2168;53.576;9.980;2024-02-14T12:47:51;0.93;;;0.93;;
4309;SDS011;2168;53.576;9.980;2024-02-14T12:50:18;1.00;;;1.00;;
4309;SDS011;2168;53.576;9.980;2024-02-14T12:52:45;1.70;;;1.70;;
4309;SDS011;2168;53.576;9.980;2024-02-14T12:55:11;1.60;;;1.60;;
4309;SDS011;2168;53.576;9.980;2024-02-14T12:57:36;1.67;;;1.67;;
4309;SDS011;2168;53.576;9.980;2024-02-14T13:00:02;1.60;;;1.60;;
4309;SDS011;2168;53.576;9.980;2024-02-14T13:02:28;2.53;;;2.53;;
4309;SDS011;2168;53.576;9.980;2024-02-14T13:04:53;1.40;;;1.40;;
4309;SDS011;2168;53.576;9.980;2024-02-14T13:07:19;1.57;;;1.57;;
4309;SDS011;2168;53.576;9.980;2024-02-14T13:09:44;1.70;;;1.70;;
4309;SDS011;2168;53.576;9.980;2024-02-14T13:12:10;1.13;;;1.13;;
4309;SDS011;2168;53.576;9.980;2024-02-14T13:14:36;2.00;;;2.00;;
4309;SDS011;2168;53.576;9.980;2024-02-14T13:17:01;1.60;;;1.60;;
4309;SDS011;2168;53.576;9.980;2024-02-14T13:19:26;1.80;;;1.80;;
4309;SDS011;2168;53.576;9.980;2024-02-14T13:21:52;2.47;;;2.47;;
4309;SDS011;2168;53.576;9.980;2024-02-14T13:24:17;2.77;;;2.67;;
4309;SDS011;2168;53.576;9.980;2024-02-14T13:26:43;1.37;;;1.37;;
4309;SDS011;2168;53.576;9.980;2024-02-14T13:29:09;1.73;;;1.73;;
4309;SDS011;2168;53.576;9.980;2024-02-14T13:31:34;2.37;;;2.37;;
4309;SDS011;2168;53.576;9.980;2024-02-14T13:33:59;1.57;;;1.57;;
4309;SDS011;2168;53.576;9.980;2024-02-14T13:36:25;1.87;;;1.87;;
4309;SDS011;2168;53.576;9.980;2024-02-14T13:38:50;1.30;;;1.30;;
4309;SDS011;2168;53.576;9.980;2024-02-14T13:41:15;2.40;;;2.40;;
4309;SDS011;2168;53.576;9.980;2024-02-14T13:43:41;2.37;;;2.37;;
4309;SDS011;2168;53.576;9.980;2024-02-14T13:46:07;2.53;;;2.53;;
4309;SDS011;2168;53.576;9.980;2024-02-14T13:48:34;1.70;;;1.70;;
4309;SDS011;2168;53.576;9.980;2024-02-14T13:51:00;1.40;;;1.40;;
4309;SDS011;2168;53.576;9.980;2024-02-14T13:53:26;1.60;;;1.60;;
4309;SDS011;2168;53.576;9.980;2024-02-14T13:55:51;1.93;;;1.93;;
4309;SDS011;2168;53.576;9.980;2024-02-14T13:58:18;2.17;;;2.17;;
4309;SDS011;2168;53.576;9.980;2024-02-14T14:00:44;2.63;;;2.63;;
4309;SDS011;2168;53.576;9.980;2024-02-14T14:03:09;2.90;;;2.80;;
4309;SDS011;2168;53.576;9.980;2024-02-14T14:05:34;3.30;;;3.20;;
4309;SDS011;2168;53.576;9.980;2024-02-14T14:08:00;3.47;;;3.37;;
4309;SDS011;2168;53.576;9.980;2024-02-14T14:10:28;3.60;;;3.50;;
4309;SDS011;2168;53.576;9.980;2024-02-14T14:12:54;3.00;;;2.90;;
4309;SDS011;2168;53.576;9.980;2024-02-14T14:15:19;3.30;;;3.20;;
4309;SDS011;2168;53.576;9.980;2024-02-14T14:17:44;4.30;;;4.10;;
4309;SDS011;2168;53.576;9.980;2024-02-14T14:20:10;3.33;;;3.23;;
4309;SDS011;2168;53.576;9.980;2024-02-14T14:22:35;2.90;;;2.90;;
4309;SDS011;2168;53.576;9.980;2024-02-14T14:25:02;4.53;;;4.33;;
4309;SDS011;2168;53.576;9.980;2024-02-14T14:27:29;3.23;;;3.13;;
4309;SDS011;2168;53.576;9.980;2024-02-14T14:29:55;3.70;;;3.40;;
4309;SDS011;2168;53.576;9.980;2024-02-14T14:32:20;4.30;;;4.10;;
4309;SDS011;2168;53.576;9.980;2024-02-14T14:34:45;3.20;;;3.10;;
4309;SDS011;2168;53.576;9.980;2024-02-14T14:37:10;3.50;;;3.40;;
4309;SDS011;2168;53.576;9.980;2024-02-14T14:39:35;2.40;;;2.30;;
4309;SDS011;2168;53.576;9.980;2024-02-14T14:42:01;2.87;;;2.77;;
4309;SDS011;2168;53.576;9.980;2024-02-14T14:44:27;4.63;;;4.33;;
4309;SDS011;2168;53.576;9.980;2024-02-14T14:46:52;3.83;;;3.73;;
4309;SDS011;2168;53.576;9.980;2024-02-14T14:49:18;4.43;;;4.23;;
4309;SDS011;2168;53.576;9.980;2024-02-14T14:51:43;4.67;;;4.40;;
4309;SDS011;2168;53.576;9.980;2024-02-14T14:54:09;6.07;;;5.57;;
4309;SDS011;2168;53.576;9.980;2024-02-14T14:56:34;5.20;;;4.80;;
4309;SDS011;2168;53.576;9.980;2024-02-14T14:58:59;4.33;;;4.13;;
4309;SDS011;2168;53.576;9.980;2024-02-14T15:01:28;5.80;;;5.40;;
4309;SDS011;2168;53.576;9.980;2024-02-14T15:03:54;4.10;;;3.90;;
4309;SDS011;2168;53.576;9.980;2024-02-14T15:06:19;4.37;;;3.97;;